sensor_id;sensor_type;location;lat;lon;timestamp;temperature;humidity
13198;DHT22;6664;52.514;13.440;2022-12-18T00:01:58;-3.60;69.90
13198;DHT22;6664;52.514;13.440;2022-12-18T00:04:46;-3.50;69.80
13198;DHT22;6664;52.514;13.440;2022-12-18T00:07:32;-3.50;69.40
13198;DHT22;6664;52.514;13.440;2022-12-18T00:10:19;-3.50;69.50
13198;DHT22;6664;52.514;13.440;2022-12-18T00:13:05;-3.50;69.10
13198;DHT22;6664;52.514;13.440;2022-12-18T00:15:54;-3.60;68.70
13198;DHT22;6664;52.514;13.440;2022-12-18T00:18:41;-3.70;69.30
13198;DHT22;6664;52.514;13.440;2022-12-18T00:21:29;-3.70;69.60
13198;DHT22;6664;52.514;13.440;2022-12-18T00:24:17;-3.70;69.20
13198;DHT22;6664;52.514;13.440;2022-12-18T00:27:03;-3.70;69.20
13198;DHT22;6664;52.514;13.440;2022-12-18T00:29:49;-3.80;69.00
13198;DHT22;6664;52.514;13.440;2022-12-18T00:32:37;-3.90;69.30
13198;DHT22;6664;52.514;13.440;2022-12-18T00:35:23;-3.80;69.60
13198;DHT22;6664;52.514;13.440;2022-12-18T00:38:08;-3.90;69.30
13198;DHT22;6664;52.514;13.440;2022-12-18T00:40:54;-3.80;69.50
13198;DHT22;6664;52.514;13.440;2022-12-18T00:43:40;-3.90;69.40
13198;DHT22;6664;52.514;13.440;2022-12-18T00:46:26;-3.80;69.50
13198;DHT22;6664;52.514;13.440;2022-12-18T00:49:16;-3.80;69.20
13198;DHT22;6664;52.514;13.440;2022-12-18T00:52:03;-3.70;69.20
13198;DHT22;6664;52.514;13.440;2022-12-18T00:54:51;-3.80;68.80
13198;DHT22;6664;52.514;13.440;2022-12-18T00:57:36;-3.80;69.20
13198;DHT22;6664;52.514;13.440;2022-12-18T01:00:22;-3.80;68.60
13198;DHT22;6664;52.514;13.440;2022-12-18T01:03:09;-3.90;68.70
13198;DHT22;6664;52.514;13.440;2022-12-18T01:05:57;-4.10;68.80
13198;DHT22;6664;52.514;13.440;2022-12-18T01:08:42;-4.00;68.70
13198;DHT22;6664;52.514;13.440;2022-12-18T01:11:32;-4.10;68.70
13198;DHT22;6664;52.514;13.440;2022-12-18T01:14:19;-4.40;68.70
13198;DHT22;6664;52.514;13.440;2022-12-18T01:17:07;-4.50;69.50
13198;DHT22;6664;52.514;13.440;2022-12-18T01:19:52;-4.40;70.00
13198;DHT22;6664;52.514;13.440;2022-12-18T01:22:40;-4.50;70.00
13198;DHT22;6664;52.514;13.440;2022-12-18T01:25:26;-4.50;70.60
13198;DHT22;6664;52.514;13.440;2022-12-18T01:28:12;-4.50;70.40
13198;DHT22;6664;52.514;13.440;2022-12-18T01:31:28;-4.30;70.10
13198;DHT22;6664;52.514;13.440;2022-12-18T01:34:14;-4.30;69.50
13198;DHT22;6664;52.514;13.440;2022-12-18T01:37:03;-4.30;69.30
13198;DHT22;6664;52.514;13.440;2022-12-18T01:39:51;-4.50;69.10
13198;DHT22;6664;52.514;13.440;2022-12-18T01:42:39;-4.40;69.20
13198;DHT22;6664;52.514;13.440;2022-12-18T01:45:28;-4.40;69.20
13198;DHT22;6664;52.514;13.440;2022-12-18T01:48:14;-4.30;68.90
13198;DHT22;6664;52.514;13.440;2022-12-18T01:51:00;-4.40;68.50
13198;DHT22;6664;52.514;13.440;2022-12-18T01:53:47;-4.30;68.90
13198;DHT22;6664;52.514;13.440;2022-12-18T01:56:34;-4.30;68.80
13198;DHT22;6664;52.514;13.440;2022-12-18T01:59:20;-4.40;68.70
13198;DHT22;6664;52.514;13.440;2022-12-18T02:02:09;-4.40;68.80
13198;DHT22;6664;52.514;13.440;2022-12-18T02:04:56;-4.30;68.90
13198;DHT22;6664;52.514;13.440;2022-12-18T02:10:40;-4.20;68.30
13198;DHT22;6664;52.514;13.440;2022-12-18T02:13:44;-4.20;68.30
13198;DHT22;6664;52.514;13.440;2022-12-18T02:17:03;-4.40;67.30
13198;DHT22;6664;52.514;13.440;2022-12-18T02:27:00;-4.50;68.50
13198;DHT22;6664;52.514;13.440;2022-12-18T02:29:51;-4.70;68.60
13198;DHT22;6664;52.514;13.440;2022-12-18T02:32:47;-4.60;68.40
13198;DHT22;6664;52.514;13.440;2022-12-18T02:35:34;-4.80;68.70
13198;DHT22;6664;52.514;13.440;2022-12-18T02:38:21;-4.60;69.10
13198;DHT22;6664;52.514;13.440;2022-12-18T02:41:07;-4.50;69.10
13198;DHT22;6664;52.514;13.440;2022-12-18T02:43:56;-4.40;68.90
13198;DHT22;6664;52.514;13.440;2022-12-18T02:46:49;-4.30;68.60
13198;DHT22;6664;52.514;13.440;2022-12-18T02:56:03;-4.30;68.10
13198;DHT22;6664;52.514;13.440;2022-12-18T02:59:02;-4.30;68.20
13198;DHT22;6664;52.514;13.440;2022-12-18T03:01:58;-4.20;68.00
13198;DHT22;6664;52.514;13.440;2022-12-18T03:04:48;-4.20;67.90
13198;DHT22;6664;52.514;13.440;2022-12-18T03:11:12;-4.10;68.00
13198;DHT22;6664;52.514;13.440;2022-12-18T03:14:01;-4.10;67.70
13198;DHT22;6664;52.514;13.440;2022-12-18T03:16:49;-4.20;67.70
13198;DHT22;6664;52.514;13.440;2022-12-18T03:19:35;-4.30;67.20
13198;DHT22;6664;52.514;13.440;2022-12-18T03:22:30;-4.20;67.90
13198;DHT22;6664;52.514;13.440;2022-12-18T03:25:18;-4.20;67.70
13198;DHT22;6664;52.514;13.440;2022-12-18T03:28:06;-4.20;67.30
13198;DHT22;6664;52.514;13.440;2022-12-18T03:30:57;-4.10;67.30
13198;DHT22;6664;52.514;13.440;2022-12-18T03:33:54;-4.10;67.00
13198;DHT22;6664;52.514;13.440;2022-12-18T03:36:40;-4.30;66.60
13198;DHT22;6664;52.514;13.440;2022-12-18T03:39:27;-4.40;67.00
13198;DHT22;6664;52.514;13.440;2022-12-18T03:42:46;-4.30;67.20
13198;DHT22;6664;52.514;13.440;2022-12-18T03:45:46;-4.20;67.20
13198;DHT22;6664;52.514;13.440;2022-12-18T03:48:44;-4.40;66.40
13198;DHT22;6664;52.514;13.440;2022-12-18T03:51:48;-4.60;66.70
13198;DHT22;6664;52.514;13.440;2022-12-18T03:54:38;-4.60;67.40
13198;DHT22;6664;52.514;13.440;2022-12-18T03:57:29;-4.50;67.40
13198;DHT22;6664;52.514;13.440;2022-12-18T04:00:17;-4.50;67.20
13198;DHT22;6664;52.514;13.440;2022-12-18T04:03:04;-4.60;67.20
13198;DHT22;6664;52.514;13.440;2022-12-18T04:05:52;-4.60;67.40
13198;DHT22;6664;52.514;13.440;2022-12-18T04:08:42;-4.60;67.40
13198;DHT22;6664;52.514;13.440;2022-12-18T04:11:27;-4.60;67.80
13198;DHT22;6664;52.514;13.440;2022-12-18T04:14:13;-4.60;67.70
13198;DHT22;6664;52.514;13.440;2022-12-18T04:17:03;-4.60;67.50
13198;DHT22;6664;52.514;13.440;2022-12-18T04:19:50;-4.60;67.70
13198;DHT22;6664;52.514;13.440;2022-12-18T04:22:38;-4.60;67.70
13198;DHT22;6664;52.514;13.440;2022-12-18T04:25:25;-4.50;67.80
13198;DHT22;6664;52.514;13.440;2022-12-18T04:28:13;-4.40;67.60
13198;DHT22;6664;52.514;13.440;2022-12-18T04:30:58;-4.40;67.30
13198;DHT22;6664;52.514;13.440;2022-12-18T04:33:44;-4.40;67.00
13198;DHT22;6664;52.514;13.440;2022-12-18T04:36:32;-4.40;66.80
13198;DHT22;6664;52.514;13.440;2022-12-18T04:39:18;-4.50;66.60
13198;DHT22;6664;52.514;13.440;2022-12-18T04:42:05;-4.60;66.80
13198;DHT22;6664;52.514;13.440;2022-12-18T04:44:51;-4.60;67.00
13198;DHT22;6664;52.514;13.440;2022-12-18T04:47:36;-4.50;67.30
13198;DHT22;6664;52.514;13.440;2022-12-18T04:50:24;-4.50;67.00
13198;DHT22;6664;52.514;13.440;2022-12-18T04:53:09;-4.50;66.90
13198;DHT22;6664;52.514;13.440;2022-12-18T04:56:10;-4.50;67.10
13198;DHT22;6664;52.514;13.440;2022-12-18T04:58:56;-4.50;66.80
13198;DHT22;6664;52.514;13.440;2022-12-18T05:01:41;-4.70;66.60
13198;DHT22;6664;52.514;13.440;2022-12-18T05:04:28;-4.60;67.10
13198;DHT22;6664;52.514;13.440;2022-12-18T05:07:15;-4.60;66.90
13198;DHT22;6664;52.514;13.440;2022-12-18T05:10:07;-4.50;66.90
13198;DHT22;6664;52.514;13.440;2022-12-18T05:12:58;-4.70;67.00
13198;DHT22;6664;52.514;13.440;2022-12-18T05:15:51;-4.70;67.00
13198;DHT22;6664;52.514;13.440;2022-12-18T05:18:40;-4.70;67.00
13198;DHT22;6664;52.514;13.440;2022-12-18T05:21:28;-4.70;67.00
13198;DHT22;6664;52.514;13.440;2022-12-18T05:24:14;-4.70;67.10
13198;DHT22;6664;52.514;13.440;2022-12-18T05:27:01;-4.70;66.50
13198;DHT22;6664;52.514;13.440;2022-12-18T05:29:49;-5.00;66.80
13198;DHT22;6664;52.514;13.440;2022-12-18T05:32:34;-5.10;67.80
13198;DHT22;6664;52.514;13.440;2022-12-18T05:35:20;-5.10;68.20
13198;DHT22;6664;52.514;13.440;2022-12-18T05:38:08;-5.00;68.80
13198;DHT22;6664;52.514;13.440;2022-12-18T05:40:54;-4.90;69.60
13198;DHT22;6664;52.514;13.440;2022-12-18T05:43:40;-4.80;68.80
13198;DHT22;6664;52.514;13.440;2022-12-18T05:46:30;-4.90;68.30
13198;DHT22;6664;52.514;13.440;2022-12-18T05:49:16;-4.90;68.90
13198;DHT22;6664;52.514;13.440;2022-12-18T05:52:07;-4.90;69.20
13198;DHT22;6664;52.514;13.440;2022-12-18T05:54:55;-4.80;69.10
13198;DHT22;6664;52.514;13.440;2022-12-18T05:57:43;-4.80;68.90
13198;DHT22;6664;52.514;13.440;2022-12-18T06:00:31;-4.80;68.90
13198;DHT22;6664;52.514;13.440;2022-12-18T06:03:19;-4.70;69.60
13198;DHT22;6664;52.514;13.440;2022-12-18T06:06:22;-4.60;69.40
13198;DHT22;6664;52.514;13.440;2022-12-18T06:09:10;-4.50;69.00
13198;DHT22;6664;52.514;13.440;2022-12-18T06:11:57;-4.60;68.60
13198;DHT22;6664;52.514;13.440;2022-12-18T06:14:43;-4.50;69.00
13198;DHT22;6664;52.514;13.440;2022-12-18T06:17:30;-4.50;68.40
13198;DHT22;6664;52.514;13.440;2022-12-18T06:20:16;-4.70;68.40
13198;DHT22;6664;52.514;13.440;2022-12-18T06:23:02;-4.70;68.50
13198;DHT22;6664;52.514;13.440;2022-12-18T06:25:47;-4.70;68.50
13198;DHT22;6664;52.514;13.440;2022-12-18T06:28:33;-4.70;68.40
13198;DHT22;6664;52.514;13.440;2022-12-18T06:31:19;-4.60;68.90
13198;DHT22;6664;52.514;13.440;2022-12-18T06:34:04;-4.50;68.70
13198;DHT22;6664;52.514;13.440;2022-12-18T06:36:52;-4.50;68.60
13198;DHT22;6664;52.514;13.440;2022-12-18T06:39:38;-4.30;68.50
13198;DHT22;6664;52.514;13.440;2022-12-18T06:42:24;-4.30;68.30
13198;DHT22;6664;52.514;13.440;2022-12-18T06:45:17;-4.30;68.20
13198;DHT22;6664;52.514;13.440;2022-12-18T06:48:05;-4.30;68.00
13198;DHT22;6664;52.514;13.440;2022-12-18T06:50:51;-4.40;67.70
13198;DHT22;6664;52.514;13.440;2022-12-18T06:53:36;-4.50;68.10
13198;DHT22;6664;52.514;13.440;2022-12-18T06:56:27;-4.50;68.40
13198;DHT22;6664;52.514;13.440;2022-12-18T06:59:13;-4.50;68.20
13198;DHT22;6664;52.514;13.440;2022-12-18T07:01:59;-4.50;68.20
13198;DHT22;6664;52.514;13.440;2022-12-18T07:04:45;-4.60;68.20
13198;DHT22;6664;52.514;13.440;2022-12-18T07:07:31;-4.60;68.30
13198;DHT22;6664;52.514;13.440;2022-12-18T07:10:20;-4.70;68.50
13198;DHT22;6664;52.514;13.440;2022-12-18T07:13:09;-4.70;68.50
13198;DHT22;6664;52.514;13.440;2022-12-18T07:15:55;-4.70;69.00
13198;DHT22;6664;52.514;13.440;2022-12-18T07:18:40;-4.60;68.90
13198;DHT22;6664;52.514;13.440;2022-12-18T07:21:28;-4.70;68.80
13198;DHT22;6664;52.514;13.440;2022-12-18T07:24:14;-4.60;68.60
13198;DHT22;6664;52.514;13.440;2022-12-18T07:27:00;-4.60;69.00
13198;DHT22;6664;52.514;13.440;2022-12-18T07:29:48;-4.80;68.60
13198;DHT22;6664;52.514;13.440;2022-12-18T07:32:34;-4.80;68.60
13198;DHT22;6664;52.514;13.440;2022-12-18T07:35:19;-4.70;69.00
13198;DHT22;6664;52.514;13.440;2022-12-18T07:38:09;-4.60;68.80
13198;DHT22;6664;52.514;13.440;2022-12-18T07:41:01;-4.40;69.00
13198;DHT22;6664;52.514;13.440;2022-12-18T07:43:51;-4.40;68.20
13198;DHT22;6664;52.514;13.440;2022-12-18T07:46:37;-4.40;68.10
13198;DHT22;6664;52.514;13.440;2022-12-18T07:49:22;-4.30;68.10
13198;DHT22;6664;52.514;13.440;2022-12-18T07:52:08;-4.40;67.80
13198;DHT22;6664;52.514;13.440;2022-12-18T07:54:57;-4.40;67.90
13198;DHT22;6664;52.514;13.440;2022-12-18T07:57:43;-4.40;68.10
13198;DHT22;6664;52.514;13.440;2022-12-18T08:00:41;-4.40;68.00
13198;DHT22;6664;52.514;13.440;2022-12-18T08:03:28;-4.50;67.70
13198;DHT22;6664;52.514;13.440;2022-12-18T08:06:14;-4.60;67.70
13198;DHT22;6664;52.514;13.440;2022-12-18T08:09:02;-4.40;68.00
13198;DHT22;6664;52.514;13.440;2022-12-18T08:11:48;-4.40;67.00
13198;DHT22;6664;52.514;13.440;2022-12-18T08:14:36;-4.40;67.60
13198;DHT22;6664;52.514;13.440;2022-12-18T08:17:21;-4.40;67.40
13198;DHT22;6664;52.514;13.440;2022-12-18T08:20:08;-4.30;67.30
13198;DHT22;6664;52.514;13.440;2022-12-18T08:22:54;-4.40;67.10
13198;DHT22;6664;52.514;13.440;2022-12-18T08:25:40;-4.20;67.20
13198;DHT22;6664;52.514;13.440;2022-12-18T08:28:26;-4.20;66.90
13198;DHT22;6664;52.514;13.440;2022-12-18T08:31:14;-4.30;66.90
13198;DHT22;6664;52.514;13.440;2022-12-18T08:34:00;-4.50;66.90
13198;DHT22;6664;52.514;13.440;2022-12-18T08:36:45;-4.50;67.20
13198;DHT22;6664;52.514;13.440;2022-12-18T08:39:31;-4.30;66.90
13198;DHT22;6664;52.514;13.440;2022-12-18T08:42:16;-4.30;66.80
13198;DHT22;6664;52.514;13.440;2022-12-18T08:45:20;-4.20;66.60
13198;DHT22;6664;52.514;13.440;2022-12-18T08:48:06;-4.10;66.40
13198;DHT22;6664;52.514;13.440;2022-12-18T08:50:55;-4.10;65.90
13198;DHT22;6664;52.514;13.440;2022-12-18T08:53:42;-4.10;65.80
13198;DHT22;6664;52.514;13.440;2022-12-18T08:56:27;-4.20;65.80
13198;DHT22;6664;52.514;13.440;2022-12-18T08:59:13;-4.20;65.90
13198;DHT22;6664;52.514;13.440;2022-12-18T09:02:04;-4.10;65.80
13198;DHT22;6664;52.514;13.440;2022-12-18T09:04:52;-4.10;65.90
13198;DHT22;6664;52.514;13.440;2022-12-18T09:07:42;-3.90;66.00
13198;DHT22;6664;52.514;13.440;2022-12-18T09:10:28;-3.90;65.20
13198;DHT22;6664;52.514;13.440;2022-12-18T09:13:16;-3.80;66.00
13198;DHT22;6664;52.514;13.440;2022-12-18T09:16:03;-3.40;66.60
13198;DHT22;6664;52.514;13.440;2022-12-18T09:18:49;-3.30;64.90
13198;DHT22;6664;52.514;13.440;2022-12-18T09:21:38;-3.30;65.00
13198;DHT22;6664;52.514;13.440;2022-12-18T09:24:33;-3.30;64.80
13198;DHT22;6664;52.514;13.440;2022-12-18T09:27:18;-3.40;64.50
13198;DHT22;6664;52.514;13.440;2022-12-18T09:30:10;-3.40;64.70
13198;DHT22;6664;52.514;13.440;2022-12-18T09:32:56;-3.50;63.80
13198;DHT22;6664;52.514;13.440;2022-12-18T09:35:45;-3.40;64.50
13198;DHT22;6664;52.514;13.440;2022-12-18T09:38:31;-3.20;64.70
13198;DHT22;6664;52.514;13.440;2022-12-18T09:41:46;-3.00;64.10
13198;DHT22;6664;52.514;13.440;2022-12-18T09:44:40;-3.10;63.60
13198;DHT22;6664;52.514;13.440;2022-12-18T09:47:35;-2.90;64.00
13198;DHT22;6664;52.514;13.440;2022-12-18T09:50:34;-2.70;63.70
13198;DHT22;6664;52.514;13.440;2022-12-18T09:53:27;-2.70;63.20
13198;DHT22;6664;52.514;13.440;2022-12-18T09:56:17;-2.60;63.60
13198;DHT22;6664;52.514;13.440;2022-12-18T09:59:04;-2.70;64.20
13198;DHT22;6664;52.514;13.440;2022-12-18T10:01:50;-2.80;64.70
13198;DHT22;6664;52.514;13.440;2022-12-18T10:04:36;-2.60;64.60
13198;DHT22;6664;52.514;13.440;2022-12-18T10:13:46;-2.30;64.50
13198;DHT22;6664;52.514;13.440;2022-12-18T10:16:36;-2.50;64.10
13198;DHT22;6664;52.514;13.440;2022-12-18T10:19:59;-2.30;64.80
13198;DHT22;6664;52.514;13.440;2022-12-18T10:23:11;-2.10;64.30
13198;DHT22;6664;52.514;13.440;2022-12-18T10:26:06;-2.10;63.60
13198;DHT22;6664;52.514;13.440;2022-12-18T10:28:53;-2.00;63.60
13198;DHT22;6664;52.514;13.440;2022-12-18T10:31:41;-2.00;64.10
13198;DHT22;6664;52.514;13.440;2022-12-18T10:34:31;-1.90;64.20
13198;DHT22;6664;52.514;13.440;2022-12-18T10:37:20;-2.00;65.80
13198;DHT22;6664;52.514;13.440;2022-12-18T10:40:11;-2.00;66.20
13198;DHT22;6664;52.514;13.440;2022-12-18T10:43:20;-2.10;66.70
13198;DHT22;6664;52.514;13.440;2022-12-18T10:48:53;-1.80;67.60
13198;DHT22;6664;52.514;13.440;2022-12-18T10:51:42;-1.70;65.90
13198;DHT22;6664;52.514;13.440;2022-12-18T10:54:31;-1.80;65.30
13198;DHT22;6664;52.514;13.440;2022-12-18T10:57:34;-1.80;65.60
13198;DHT22;6664;52.514;13.440;2022-12-18T11:06:20;-2.10;66.60
13198;DHT22;6664;52.514;13.440;2022-12-18T11:09:24;-2.10;65.90
13198;DHT22;6664;52.514;13.440;2022-12-18T11:12:17;-2.00;65.70
13198;DHT22;6664;52.514;13.440;2022-12-18T11:15:03;-2.20;66.80
13198;DHT22;6664;52.514;13.440;2022-12-18T11:17:53;-2.20;66.30
13198;DHT22;6664;52.514;13.440;2022-12-18T11:20:39;-2.20;66.20
13198;DHT22;6664;52.514;13.440;2022-12-18T11:23:25;-2.30;66.30
13198;DHT22;6664;52.514;13.440;2022-12-18T11:26:13;-2.30;66.50
13198;DHT22;6664;52.514;13.440;2022-12-18T16:23:36;-3.10;69.00
13198;DHT22;6664;52.514;13.440;2022-12-18T16:26:23;-3.10;69.40
13198;DHT22;6664;52.514;13.440;2022-12-18T16:29:14;-3.10;69.40
13198;DHT22;6664;52.514;13.440;2022-12-18T16:32:00;-3.00;69.40
13198;DHT22;6664;52.514;13.440;2022-12-18T16:34:46;-3.00;69.30
13198;DHT22;6664;52.514;13.440;2022-12-18T16:37:32;-3.00;69.30
13198;DHT22;6664;52.514;13.440;2022-12-18T16:40:18;-3.00;69.20
13198;DHT22;6664;52.514;13.440;2022-12-18T16:43:04;-3.00;69.20
13198;DHT22;6664;52.514;13.440;2022-12-18T16:45:49;-3.00;69.00
13198;DHT22;6664;52.514;13.440;2022-12-18T16:48:36;-3.00;68.80
13198;DHT22;6664;52.514;13.440;2022-12-18T16:51:21;-3.20;68.90
13198;DHT22;6664;52.514;13.440;2022-12-18T16:54:08;-3.30;69.00
13198;DHT22;6664;52.514;13.440;2022-12-18T16:56:58;-3.40;68.90
13198;DHT22;6664;52.514;13.440;2022-12-18T16:59:45;-3.40;69.30
13198;DHT22;6664;52.514;13.440;2022-12-18T17:02:31;-3.40;69.60
13198;DHT22;6664;52.514;13.440;2022-12-18T17:05:17;-3.40;70.00
13198;DHT22;6664;52.514;13.440;2022-12-18T17:08:03;-3.50;70.10
13198;DHT22;6664;52.514;13.440;2022-12-18T17:10:49;-3.60;70.40
13198;DHT22;6664;52.514;13.440;2022-12-18T17:13:35;-3.80;70.60
13198;DHT22;6664;52.514;13.440;2022-12-18T17:16:21;-3.90;71.20
13198;DHT22;6664;52.514;13.440;2022-12-18T17:19:09;-4.00;71.10
13198;DHT22;6664;52.514;13.440;2022-12-18T17:22:01;-4.10;71.70
13198;DHT22;6664;52.514;13.440;2022-12-18T17:24:47;-4.10;72.10
13198;DHT22;6664;52.514;13.440;2022-12-18T17:27:33;-4.20;72.40
13198;DHT22;6664;52.514;13.440;2022-12-18T17:30:18;-4.20;72.90
13198;DHT22;6664;52.514;13.440;2022-12-18T17:33:08;-4.20;73.20
13198;DHT22;6664;52.514;13.440;2022-12-18T17:35:57;-4.30;73.20
13198;DHT22;6664;52.514;13.440;2022-12-18T17:38:52;-4.30;73.50
13198;DHT22;6664;52.514;13.440;2022-12-18T17:41:38;-4.40;73.70
13198;DHT22;6664;52.514;13.440;2022-12-18T17:44:24;-4.40;74.00
13198;DHT22;6664;52.514;13.440;2022-12-18T17:47:10;-4.30;74.30
13198;DHT22;6664;52.514;13.440;2022-12-18T17:49:56;-4.30;74.40
13198;DHT22;6664;52.514;13.440;2022-12-18T17:52:45;-4.30;74.40
13198;DHT22;6664;52.514;13.440;2022-12-18T17:55:30;-4.20;74.50
13198;DHT22;6664;52.514;13.440;2022-12-18T17:58:17;-4.30;74.10
13198;DHT22;6664;52.514;13.440;2022-12-18T18:01:06;-4.30;74.40
13198;DHT22;6664;52.514;13.440;2022-12-18T18:03:54;-4.30;74.30
13198;DHT22;6664;52.514;13.440;2022-12-18T18:06:40;-4.30;74.20
13198;DHT22;6664;52.514;13.440;2022-12-18T18:09:26;-4.30;74.30
13198;DHT22;6664;52.514;13.440;2022-12-18T18:12:12;-4.40;74.30
13198;DHT22;6664;52.514;13.440;2022-12-18T18:15:16;-4.40;74.60
13198;DHT22;6664;52.514;13.440;2022-12-18T18:18:03;-4.40;74.50
13198;DHT22;6664;52.514;13.440;2022-12-18T18:20:51;-4.30;74.60
13198;DHT22;6664;52.514;13.440;2022-12-18T18:23:38;-4.40;75.10
13198;DHT22;6664;52.514;13.440;2022-12-18T18:26:30;-4.40;74.30
13198;DHT22;6664;52.514;13.440;2022-12-18T18:29:24;-4.40;74.30
13198;DHT22;6664;52.514;13.440;2022-12-18T18:32:13;-4.50;74.20
13198;DHT22;6664;52.514;13.440;2022-12-18T18:34:58;-4.50;74.40
13198;DHT22;6664;52.514;13.440;2022-12-18T18:37:49;-4.60;74.40
13198;DHT22;6664;52.514;13.440;2022-12-18T18:40:36;-4.60;74.50
13198;DHT22;6664;52.514;13.440;2022-12-18T18:43:21;-4.60;74.50
13198;DHT22;6664;52.514;13.440;2022-12-18T18:46:06;-4.60;74.60
13198;DHT22;6664;52.514;13.440;2022-12-18T18:48:54;-4.60;74.40
13198;DHT22;6664;52.514;13.440;2022-12-18T18:51:43;-4.70;74.60
13198;DHT22;6664;52.514;13.440;2022-12-18T18:54:29;-4.60;74.60
13198;DHT22;6664;52.514;13.440;2022-12-18T18:57:15;-4.70;74.60
13198;DHT22;6664;52.514;13.440;2022-12-18T19:00:07;-4.70;74.60
13198;DHT22;6664;52.514;13.440;2022-12-18T19:02:53;-4.70;74.40
13198;DHT22;6664;52.514;13.440;2022-12-18T19:05:52;-4.70;74.60
13198;DHT22;6664;52.514;13.440;2022-12-18T19:08:40;-4.70;74.60
13198;DHT22;6664;52.514;13.440;2022-12-18T19:11:28;-4.70;74.60
13198;DHT22;6664;52.514;13.440;2022-12-18T19:14:32;-4.70;74.50
13198;DHT22;6664;52.514;13.440;2022-12-18T19:17:18;-4.70;74.40
13198;DHT22;6664;52.514;13.440;2022-12-18T19:20:06;-4.70;74.30
13198;DHT22;6664;52.514;13.440;2022-12-18T19:22:56;-4.60;74.20
13198;DHT22;6664;52.514;13.440;2022-12-18T19:25:45;-4.60;74.00
13198;DHT22;6664;52.514;13.440;2022-12-18T19:28:31;-4.60;73.80
13198;DHT22;6664;52.514;13.440;2022-12-18T19:31:17;-4.60;73.60
13198;DHT22;6664;52.514;13.440;2022-12-18T19:34:09;-4.50;73.50
13198;DHT22;6664;52.514;13.440;2022-12-18T19:36:57;-4.50;73.00
13198;DHT22;6664;52.514;13.440;2022-12-18T19:39:49;-4.50;72.80
13198;DHT22;6664;52.514;13.440;2022-12-18T19:42:42;-4.50;72.70
13198;DHT22;6664;52.514;13.440;2022-12-18T19:45:30;-4.50;72.40
13198;DHT22;6664;52.514;13.440;2022-12-18T19:48:15;-4.50;72.30
13198;DHT22;6664;52.514;13.440;2022-12-18T19:51:06;-4.50;72.30
13198;DHT22;6664;52.514;13.440;2022-12-18T19:53:52;-4.50;72.30
13198;DHT22;6664;52.514;13.440;2022-12-18T19:56:43;-4.50;72.20
13198;DHT22;6664;52.514;13.440;2022-12-18T19:59:29;-4.60;72.10
13198;DHT22;6664;52.514;13.440;2022-12-18T20:02:17;-4.60;72.00
13198;DHT22;6664;52.514;13.440;2022-12-18T20:05:09;-4.60;71.90
13198;DHT22;6664;52.514;13.440;2022-12-18T20:07:55;-4.60;71.90
13198;DHT22;6664;52.514;13.440;2022-12-18T20:10:40;-4.50;71.90
13198;DHT22;6664;52.514;13.440;2022-12-18T20:13:29;-4.50;71.70
13198;DHT22;6664;52.514;13.440;2022-12-18T20:16:15;-4.60;71.60
13198;DHT22;6664;52.514;13.440;2022-12-18T20:19:00;-4.60;71.60
13198;DHT22;6664;52.514;13.440;2022-12-18T20:21:51;-4.60;71.60
13198;DHT22;6664;52.514;13.440;2022-12-18T20:24:36;-4.60;71.50
13198;DHT22;6664;52.514;13.440;2022-12-18T20:27:22;-4.50;71.50
13198;DHT22;6664;52.514;13.440;2022-12-18T20:30:08;-4.50;71.10
13198;DHT22;6664;52.514;13.440;2022-12-18T20:32:56;-4.50;70.90
13198;DHT22;6664;52.514;13.440;2022-12-18T20:35:42;-4.40;70.70
13198;DHT22;6664;52.514;13.440;2022-12-18T20:38:29;-4.40;70.70
13198;DHT22;6664;52.514;13.440;2022-12-18T20:41:19;-4.40;70.70
13198;DHT22;6664;52.514;13.440;2022-12-18T20:44:07;-4.40;70.70
13198;DHT22;6664;52.514;13.440;2022-12-18T20:47:08;-4.40;70.70
13198;DHT22;6664;52.514;13.440;2022-12-18T20:49:55;-4.40;70.60
13198;DHT22;6664;52.514;13.440;2022-12-18T20:52:40;-4.40;70.60
13198;DHT22;6664;52.514;13.440;2022-12-18T20:55:26;-4.40;70.60
13198;DHT22;6664;52.514;13.440;2022-12-18T20:58:11;-4.40;70.60
13198;DHT22;6664;52.514;13.440;2022-12-18T21:01:17;-4.40;70.50
13198;DHT22;6664;52.514;13.440;2022-12-18T21:04:03;-4.40;70.40
13198;DHT22;6664;52.514;13.440;2022-12-18T21:06:52;-4.40;70.30
13198;DHT22;6664;52.514;13.440;2022-12-18T21:09:44;-4.40;70.10
13198;DHT22;6664;52.514;13.440;2022-12-18T21:12:30;-4.40;70.00
13198;DHT22;6664;52.514;13.440;2022-12-18T21:15:32;-4.30;70.00
13198;DHT22;6664;52.514;13.440;2022-12-18T21:18:18;-4.30;69.80
13198;DHT22;6664;52.514;13.440;2022-12-18T21:21:04;-4.30;69.50
13198;DHT22;6664;52.514;13.440;2022-12-18T21:23:49;-4.30;69.40
13198;DHT22;6664;52.514;13.440;2022-12-18T21:26:35;-4.30;69.40
13198;DHT22;6664;52.514;13.440;2022-12-18T21:29:32;-4.30;69.40
13198;DHT22;6664;52.514;13.440;2022-12-18T21:32:19;-4.30;69.30
13198;DHT22;6664;52.514;13.440;2022-12-18T21:35:05;-4.30;69.30
13198;DHT22;6664;52.514;13.440;2022-12-18T21:37:53;-4.30;69.30
13198;DHT22;6664;52.514;13.440;2022-12-18T21:40:38;-4.30;69.30
13198;DHT22;6664;52.514;13.440;2022-12-18T21:43:26;-4.30;69.30
13198;DHT22;6664;52.514;13.440;2022-12-18T21:46:42;-4.30;69.30
13198;DHT22;6664;52.514;13.440;2022-12-18T21:49:28;-4.30;69.20
13198;DHT22;6664;52.514;13.440;2022-12-18T21:52:13;-4.30;69.20
13198;DHT22;6664;52.514;13.440;2022-12-18T21:55:02;-4.30;69.20
13198;DHT22;6664;52.514;13.440;2022-12-18T21:57:54;-4.30;69.00
13198;DHT22;6664;52.514;13.440;2022-12-18T22:00:41;-4.30;69.00
13198;DHT22;6664;52.514;13.440;2022-12-18T22:03:32;-4.20;69.00
13198;DHT22;6664;52.514;13.440;2022-12-18T22:06:21;-4.20;68.60
13198;DHT22;6664;52.514;13.440;2022-12-18T22:09:11;-4.20;68.60
13198;DHT22;6664;52.514;13.440;2022-12-18T22:11:57;-4.20;68.60
13198;DHT22;6664;52.514;13.440;2022-12-18T22:14:43;-4.10;68.60
13198;DHT22;6664;52.514;13.440;2022-12-18T22:17:28;-4.10;68.50
13198;DHT22;6664;52.514;13.440;2022-12-18T22:20:17;-4.10;68.40
13198;DHT22;6664;52.514;13.440;2022-12-18T22:23:04;-4.10;68.10
13198;DHT22;6664;52.514;13.440;2022-12-18T22:25:50;-4.00;68.10
13198;DHT22;6664;52.514;13.440;2022-12-18T22:28:36;-4.00;68.00
13198;DHT22;6664;52.514;13.440;2022-12-18T22:31:40;-4.10;67.90
13198;DHT22;6664;52.514;13.440;2022-12-18T22:34:26;-4.10;67.80
13198;DHT22;6664;52.514;13.440;2022-12-18T22:37:11;-4.10;67.80
13198;DHT22;6664;52.514;13.440;2022-12-18T22:39:59;-4.10;67.90
13198;DHT22;6664;52.514;13.440;2022-12-18T22:42:47;-4.10;67.90
13198;DHT22;6664;52.514;13.440;2022-12-18T22:45:35;-4.10;67.70
13198;DHT22;6664;52.514;13.440;2022-12-18T22:48:22;-4.00;67.70
13198;DHT22;6664;52.514;13.440;2022-12-18T22:51:15;-4.00;67.70
13198;DHT22;6664;52.514;13.440;2022-12-18T22:54:01;-4.10;67.60
13198;DHT22;6664;52.514;13.440;2022-12-18T22:56:48;-4.00;67.60
13198;DHT22;6664;52.514;13.440;2022-12-18T22:59:33;-4.10;67.50
13198;DHT22;6664;52.514;13.440;2022-12-18T23:02:20;-4.10;67.30
13198;DHT22;6664;52.514;13.440;2022-12-18T23:05:06;-4.10;67.40
13198;DHT22;6664;52.514;13.440;2022-12-18T23:07:52;-4.10;67.40
13198;DHT22;6664;52.514;13.440;2022-12-18T23:10:38;-4.10;67.50
13198;DHT22;6664;52.514;13.440;2022-12-18T23:13:24;-4.20;67.60
13198;DHT22;6664;52.514;13.440;2022-12-18T23:16:12;-4.20;67.50